sensor_id;sensor_type;location;lat;lon;timestamp;pressure;altitude;pressure_sealevel;temperature;humidity
30636;BME280;17400;52.392;9.750;2022-09-17T00:01:05;100014.00;;;12.86;100.00
30636;BME280;17400;52.392;9.750;2022-09-17T00:03:34;100020.19;;;12.93;100.00
30636;BME280;17400;52.392;9.750;2022-09-17T00:06:04;100024.25;;;13.02;100.00
30636;BME280;17400;52.392;9.750;2022-09-17T00:08:33;100023.31;;;13.08;100.00
30636;BME280;17400;52.392;9.750;2022-09-17T00:11:07;100023.63;;;13.00;100.00
30636;BME280;17400;52.392;9.750;2022-09-17T00:13:35;100022.25;;;13.09;100.00
30636;BME280;17400;52.392;9.750;2022-09-17T00:16:03;100024.72;;;13.11;100.00
30636;BME280;17400;52.392;9.750;2022-09-17T00:18:31;100031.94;;;13.05;100.00
30636;BME280;17400;52.392;9.750;2022-09-17T00:20:58;100029.91;;;13.00;100.00
30636;BME280;17400;52.392;9.750;2022-09-17T00:23:26;100034.66;;;13.05;100.00
30636;BME280;17400;52.392;9.750;2022-09-17T00:25:54;100034.50;;;13.00;100.00
30636;BME280;17400;52.392;9.750;2022-09-17T00:28:22;100038.19;;;13.06;100.00
30636;BME280;17400;52.392;9.750;2022-09-17T00:30:50;100039.50;;;13.03;100.00
30636;BME280;17400;52.392;9.750;2022-09-17T00:33:18;100042.41;;;13.02;100.00
30636;BME280;17400;52.392;9.750;2022-09-17T00:35:56;100031.94;;;13.05;100.00
30636;BME280;17400;52.392;9.750;2022-09-17T00:38:24;100031.00;;;13.11;100.00
30636;BME280;17400;52.392;9.750;2022-09-17T00:40:52;100035.75;;;13.16;100.00
30636;BME280;17400;52.392;9.750;2022-09-17T00:43:39;100044.47;;;13.06;100.00
30636;BME280;17400;52.392;9.750;2022-09-17T00:46:19;100043.16;;;13.09;100.00
30636;BME280;17400;52.392;9.750;2022-09-17T00:48:50;100049.03;;;13.06;100.00
30636;BME280;17400;52.392;9.750;2022-09-17T00:51:21;100039.94;;;13.00;100.00
30636;BME280;17400;52.392;9.750;2022-09-17T00:53:51;100053.53;;;13.00;100.00
30636;BME280;17400;52.392;9.750;2022-09-17T00:56:21;100053.75;;;12.98;100.00
30636;BME280;17400;52.392;9.750;2022-09-17T00:58:51;100050.94;;;13.05;100.00
30636;BME280;17400;52.392;9.750;2022-09-17T01:01:19;100057.44;;;13.04;100.00
30636;BME280;17400;52.392;9.750;2022-09-17T01:03:47;100049.66;;;13.08;100.00
30636;BME280;17400;52.392;9.750;2022-09-17T01:06:21;100047.41;;;13.05;100.00
30636;BME280;17400;52.392;9.750;2022-09-17T01:09:05;100047.13;;;12.94;100.00
30636;BME280;17400;52.392;9.750;2022-09-17T01:11:44;100054.06;;;12.90;100.00
30636;BME280;17400;52.392;9.750;2022-09-17T01:14:36;100051.75;;;12.94;100.00
30636;BME280;17400;52.392;9.750;2022-09-17T01:17:12;100047.13;;;12.94;100.00
30636;BME280;17400;52.392;9.750;2022-09-17T01:22:53;100048.72;;;12.83;100.00
30636;BME280;17400;52.392;9.750;2022-09-17T01:25:31;100040.75;;;12.70;100.00
30636;BME280;17400;52.392;9.750;2022-09-17T01:28:23;100045.03;;;12.78;100.00
30636;BME280;17400;52.392;9.750;2022-09-17T01:31:10;100046.91;;;12.77;100.00
30636;BME280;17400;52.392;9.750;2022-09-17T01:33:49;100049.41;;;12.79;100.00
30636;BME280;17400;52.392;9.750;2022-09-17T01:36:28;100055.22;;;12.82;100.00
30636;BME280;17400;52.392;9.750;2022-09-17T01:39:05;100061.69;;;12.81;100.00
30636;BME280;17400;52.392;9.750;2022-09-17T01:41:40;100057.16;;;12.75;100.00
30636;BME280;17400;52.392;9.750;2022-09-17T01:44:14;100055.53;;;12.74;100.00
30636;BME280;17400;52.392;9.750;2022-09-17T01:46:48;100063.44;;;12.57;100.00
30636;BME280;17400;52.392;9.750;2022-09-17T01:49:20;100062.59;;;12.57;100.00
30636;BME280;17400;52.392;9.750;2022-09-17T01:51:49;100074.09;;;12.59;100.00
30636;BME280;17400;52.392;9.750;2022-09-17T01:54:21;100074.63;;;12.68;100.00
30636;BME280;17400;52.392;9.750;2022-09-17T01:56:54;100063.53;;;12.50;100.00
30636;BME280;17400;52.392;9.750;2022-09-17T01:59:26;100077.44;;;12.36;100.00
30636;BME280;17400;52.392;9.750;2022-09-17T02:02:02;100080.72;;;12.44;100.00
30636;BME280;17400;52.392;9.750;2022-09-17T02:04:36;100073.53;;;12.50;100.00
30636;BME280;17400;52.392;9.750;2022-09-17T02:07:09;100077.09;;;12.50;100.00
30636;BME280;17400;52.392;9.750;2022-09-17T02:09:44;100078.16;;;12.49;100.00
30636;BME280;17400;52.392;9.750;2022-09-17T02:12:18;100083.97;;;12.53;100.00
30636;BME280;17400;52.392;9.750;2022-09-17T02:14:49;100076.06;;;12.52;100.00
30636;BME280;17400;52.392;9.750;2022-09-17T02:17:23;100085.00;;;12.52;100.00
30636;BME280;17400;52.392;9.750;2022-09-17T02:19:53;100078.16;;;12.49;100.00
30636;BME280;17400;52.392;9.750;2022-09-17T02:22:25;100082.97;;;12.47;100.00
30636;BME280;17400;52.392;9.750;2022-09-17T02:25:00;100079.59;;;12.52;100.00
30636;BME280;17400;52.392;9.750;2022-09-17T02:27:38;100084.47;;;12.43;100.00
30636;BME280;17400;52.392;9.750;2022-09-17T02:30:10;100094.28;;;12.44;100.00
30636;BME280;17400;52.392;9.750;2022-09-17T02:32:39;100095.31;;;12.43;100.00
30636;BME280;17400;52.392;9.750;2022-09-17T02:35:08;100089.25;;;12.48;100.00
30636;BME280;17400;52.392;9.750;2022-09-17T02:37:36;100089.00;;;12.49;100.00
30636;BME280;17400;52.392;9.750;2022-09-17T02:40:05;100090.69;;;12.50;100.00
30636;BME280;17400;52.392;9.750;2022-09-17T02:42:42;100093.69;;;12.42;100.00
30636;BME280;17400;52.392;9.750;2022-09-17T02:45:24;100103.63;;;12.48;100.00
30636;BME280;17400;52.392;9.750;2022-09-17T02:48:06;100096.34;;;12.49;100.00
30636;BME280;17400;52.392;9.750;2022-09-17T02:50:46;100101.78;;;12.49;100.00
30636;BME280;17400;52.392;9.750;2022-09-17T02:53:30;100097.06;;;12.38;100.00
30636;BME280;17400;52.392;9.750;2022-09-17T02:56:09;100100.00;;;12.36;100.00
30636;BME280;17400;52.392;9.750;2022-09-17T02:58:45;100096.31;;;12.30;100.00
30636;BME280;17400;52.392;9.750;2022-09-17T03:01:22;100101.06;;;12.35;100.00
30636;BME280;17400;52.392;9.750;2022-09-17T03:03:53;100099.16;;;12.36;100.00
30636;BME280;17400;52.392;9.750;2022-09-17T03:06:23;100100.31;;;12.28;100.00
30636;BME280;17400;52.392;9.750;2022-09-17T03:08:51;100107.81;;;12.26;100.00
30636;BME280;17400;52.392;9.750;2022-09-17T03:11:18;100103.28;;;12.20;100.00
30636;BME280;17400;52.392;9.750;2022-09-17T03:13:47;100096.16;;;12.25;100.00
30636;BME280;17400;52.392;9.750;2022-09-17T03:16:14;100108.13;;;12.18;100.00
30636;BME280;17400;52.392;9.750;2022-09-17T03:18:42;100108.88;;;12.25;100.00
30636;BME280;17400;52.392;9.750;2022-09-17T03:21:11;100108.56;;;12.14;100.00
30636;BME280;17400;52.392;9.750;2022-09-17T03:23:39;100109.72;;;12.00;100.00
30636;BME280;17400;52.392;9.750;2022-09-17T03:26:06;100119.16;;;11.97;100.00
30636;BME280;17400;52.392;9.750;2022-09-17T03:28:34;100124.75;;;11.96;100.00
30636;BME280;17400;52.392;9.750;2022-09-17T03:31:02;100118.00;;;12.05;100.00
30636;BME280;17400;52.392;9.750;2022-09-17T03:33:31;100115.16;;;12.00;100.00
30636;BME280;17400;52.392;9.750;2022-09-17T03:35:59;100119.50;;;12.01;100.00
30636;BME280;17400;52.392;9.750;2022-09-17T03:38:28;100117.41;;;12.03;100.00
30636;BME280;17400;52.392;9.750;2022-09-17T03:40:57;100124.28;;;12.06;100.00
30636;BME280;17400;52.392;9.750;2022-09-17T03:43:25;100129.66;;;12.12;100.00
30636;BME280;17400;52.392;9.750;2022-09-17T03:45:53;100126.53;;;12.09;100.00
30636;BME280;17400;52.392;9.750;2022-09-17T03:48:20;100121.41;;;12.00;100.00
30636;BME280;17400;52.392;9.750;2022-09-17T03:50:48;100133.69;;;12.03;100.00
30636;BME280;17400;52.392;9.750;2022-09-17T03:53:16;100127.41;;;12.09;100.00
30636;BME280;17400;52.392;9.750;2022-09-17T03:55:45;100130.59;;;11.99;100.00
30636;BME280;17400;52.392;9.750;2022-09-17T03:58:13;100143.94;;;12.01;100.00
30636;BME280;17400;52.392;9.750;2022-09-17T04:00:41;100145.66;;;11.95;100.00
30636;BME280;17400;52.392;9.750;2022-09-17T04:03:08;100139.41;;;11.95;100.00
30636;BME280;17400;52.392;9.750;2022-09-17T04:05:36;100143.94;;;12.01;100.00
30636;BME280;17400;52.392;9.750;2022-09-17T04:08:04;100148.47;;;12.07;100.00
30636;BME280;17400;52.392;9.750;2022-09-17T04:10:31;100141.78;;;12.10;100.00
30636;BME280;17400;52.392;9.750;2022-09-17T04:13:00;100148.25;;;12.09;100.00
30636;BME280;17400;52.392;9.750;2022-09-17T04:15:28;100147.84;;;12.05;100.00
30636;BME280;17400;52.392;9.750;2022-09-17T04:17:55;100157.06;;;12.04;100.00
30636;BME280;17400;52.392;9.750;2022-09-17T04:20:24;100150.84;;;11.97;100.00
30636;BME280;17400;52.392;9.750;2022-09-17T04:22:52;100157.66;;;12.06;100.00
30636;BME280;17400;52.392;9.750;2022-09-17T04:25:20;100164.94;;;12.12;100.00
30636;BME280;17400;52.392;9.750;2022-09-17T04:27:48;100167.03;;;12.10;100.00
30636;BME280;17400;52.392;9.750;2022-09-17T04:30:17;100159.59;;;11.99;100.00
30636;BME280;17400;52.392;9.750;2022-09-17T04:32:45;100161.88;;;12.02;100.00
30636;BME280;17400;52.392;9.750;2022-09-17T04:35:13;100164.59;;;12.02;100.00
30636;BME280;17400;52.392;9.750;2022-09-17T04:37:41;100158.78;;;11.92;100.00
30636;BME280;17400;52.392;9.750;2022-09-17T04:40:09;100159.59;;;11.99;100.00
30636;BME280;17400;52.392;9.750;2022-09-17T04:42:37;100165.03;;;11.99;100.00
30636;BME280;17400;52.392;9.750;2022-09-17T04:45:05;100157.19;;;11.84;100.00
30636;BME280;17400;52.392;9.750;2022-09-17T04:47:37;100151.53;;;11.86;100.00
30636;BME280;17400;52.392;9.750;2022-09-17T04:50:05;100166.06;;;11.98;100.00
30636;BME280;17400;52.392;9.750;2022-09-17T04:52:33;100161.00;;;12.08;100.00
30636;BME280;17400;52.392;9.750;2022-09-17T04:55:01;100164.13;;;12.05;100.00
30636;BME280;17400;52.392;9.750;2022-09-17T04:57:28;100154.19;;;11.99;100.00
30636;BME280;17400;52.392;9.750;2022-09-17T04:59:56;100160.00;;;12.03;100.00
30636;BME280;17400;52.392;9.750;2022-09-17T05:02:23;100153.34;;;11.98;100.00
30636;BME280;17400;52.392;9.750;2022-09-17T05:04:52;100163.09;;;12.06;100.00
30636;BME280;17400;52.392;9.750;2022-09-17T05:07:22;100157.66;;;12.06;100.00
30636;BME280;17400;52.392;9.750;2022-09-17T05:09:49;100167.75;;;11.99;100.00
30636;BME280;17400;52.392;9.750;2022-09-17T05:12:17;100169.19;;;12.02;100.00
30636;BME280;17400;52.392;9.750;2022-09-17T05:14:45;100163.59;;;11.90;100.00
30636;BME280;17400;52.392;9.750;2022-09-17T05:17:13;100168.59;;;11.93;100.00
30636;BME280;17400;52.392;9.750;2022-09-17T05:19:40;100179.25;;;11.88;100.00
30636;BME280;17400;52.392;9.750;2022-09-17T05:22:09;100182.63;;;11.83;100.00
30636;BME280;17400;52.392;9.750;2022-09-17T05:24:38;100181.38;;;11.86;100.00
30636;BME280;17400;52.392;9.750;2022-09-17T05:27:07;100181.78;;;11.82;100.00
30636;BME280;17400;52.392;9.750;2022-09-17T05:29:35;100186.78;;;11.86;100.00
30636;BME280;17400;52.392;9.750;2022-09-17T05:32:03;100183.00;;;11.87;100.00
30636;BME280;17400;52.392;9.750;2022-09-17T05:34:31;100190.50;;;11.91;100.00
30636;BME280;17400;52.392;9.750;2022-09-17T05:36:59;100195.97;;;11.84;100.00
30636;BME280;17400;52.392;9.750;2022-09-17T05:39:28;100181.31;;;11.92;100.00
30636;BME280;17400;52.392;9.750;2022-09-17T05:41:56;100190.56;;;11.84;100.00
30636;BME280;17400;52.392;9.750;2022-09-17T05:44:24;100190.09;;;11.88;100.00
30636;BME280;17400;52.392;9.750;2022-09-17T05:46:52;100188.84;;;11.90;100.00
30636;BME280;17400;52.392;9.750;2022-09-17T05:49:20;100195.53;;;11.88;100.00
30636;BME280;17400;52.392;9.750;2022-09-17T05:51:49;100193.34;;;11.71;100.00
30636;BME280;17400;52.392;9.750;2022-09-17T05:54:16;100199.56;;;11.78;100.00
30636;BME280;17400;52.392;9.750;2022-09-17T05:56:45;100194.09;;;11.85;100.00
30636;BME280;17400;52.392;9.750;2022-09-17T05:59:13;100196.97;;;11.97;100.00
30636;BME280;17400;52.392;9.750;2022-09-17T06:01:41;100188.81;;;11.97;100.00
30636;BME280;17400;52.392;9.750;2022-09-17T06:04:09;100204.06;;;11.98;100.00
30636;BME280;17400;52.392;9.750;2022-09-17T06:06:36;100198.41;;;11.93;100.00
30636;BME280;17400;52.392;9.750;2022-09-17T06:09:04;100211.16;;;11.92;100.00
30636;BME280;17400;52.392;9.750;2022-09-17T06:11:32;100220.81;;;11.81;100.00
30636;BME280;17400;52.392;9.750;2022-09-17T06:14:01;100221.53;;;11.63;100.00
30636;BME280;17400;52.392;9.750;2022-09-17T06:16:30;100224.03;;;11.65;100.00
30636;BME280;17400;52.392;9.750;2022-09-17T06:18:58;100221.28;;;11.72;100.00
30636;BME280;17400;52.392;9.750;2022-09-17T06:21:26;100222.06;;;11.86;100.00
30636;BME280;17400;52.392;9.750;2022-09-17T06:23:54;100226.03;;;11.83;100.00
30636;BME280;17400;52.392;9.750;2022-09-17T06:26:22;100215.41;;;11.81;100.00
30636;BME280;17400;52.392;9.750;2022-09-17T06:28:49;100225.19;;;11.82;100.00
30636;BME280;17400;52.392;9.750;2022-09-17T06:31:19;100224.31;;;11.89;100.00
30636;BME280;17400;52.392;9.750;2022-09-17T06:33:47;100235.97;;;11.89;100.00
30636;BME280;17400;52.392;9.750;2022-09-17T06:36:15;100238.06;;;11.94;100.00
30636;BME280;17400;52.392;9.750;2022-09-17T06:38:44;100235.97;;;11.89;100.00
30636;BME280;17400;52.392;9.750;2022-09-17T06:41:12;100228.03;;;11.94;100.00
30636;BME280;17400;52.392;9.750;2022-09-17T06:43:42;100231.41;;;11.90;100.00
30636;BME280;17400;52.392;9.750;2022-09-17T06:46:10;100236.38;;;11.99;100.00
30636;BME280;17400;52.392;9.750;2022-09-17T06:48:41;100246.19;;;12.00;100.00
30636;BME280;17400;52.392;9.750;2022-09-17T06:51:10;100247.25;;;11.93;100.00
30636;BME280;17400;52.392;9.750;2022-09-17T06:53:38;100255.59;;;11.98;100.00
30636;BME280;17400;52.392;9.750;2022-09-17T06:56:08;100245.88;;;12.15;100.00
30636;BME280;17400;52.392;9.750;2022-09-17T06:58:37;100247.72;;;12.22;100.00
30636;BME280;17400;52.392;9.750;2022-09-17T07:01:08;100241.84;;;12.25;100.00
30636;BME280;17400;52.392;9.750;2022-09-17T07:03:37;100234.56;;;12.25;100.00
30636;BME280;17400;52.392;9.750;2022-09-17T07:06:08;100247.63;;;12.35;100.00
30636;BME280;17400;52.392;9.750;2022-09-17T07:08:37;100238.38;;;12.43;100.00
30636;BME280;17400;52.392;9.750;2022-09-17T07:11:05;100239.72;;;12.33;100.00
30636;BME280;17400;52.392;9.750;2022-09-17T07:13:33;100250.63;;;12.27;100.00
30636;BME280;17400;52.392;9.750;2022-09-17T07:16:03;100239.13;;;12.25;100.00
30636;BME280;17400;52.392;9.750;2022-09-17T07:18:32;100231.16;;;12.30;100.00
30636;BME280;17400;52.392;9.750;2022-09-17T07:21:03;100235.63;;;12.49;100.00
30636;BME280;17400;52.392;9.750;2022-09-17T07:23:33;100233.25;;;12.60;100.00
30636;BME280;17400;52.392;9.750;2022-09-17T07:26:03;100232.78;;;12.63;100.00
30636;BME280;17400;52.392;9.750;2022-09-17T07:28:32;100234.31;;;12.77;100.00
30636;BME280;17400;52.392;9.750;2022-09-17T07:31:02;100238.25;;;12.81;100.00
30636;BME280;17400;52.392;9.750;2022-09-17T07:33:33;100245.50;;;12.88;100.00
30636;BME280;17400;52.392;9.750;2022-09-17T07:36:04;100245.06;;;12.91;100.00
30636;BME280;17400;52.392;9.750;2022-09-17T07:38:34;100242.19;;;12.86;100.00
30636;BME280;17400;52.392;9.750;2022-09-17T07:41:04;100241.66;;;12.77;100.00
30636;BME280;17400;52.392;9.750;2022-09-17T07:43:33;100239.59;;;12.72;100.00
30636;BME280;17400;52.392;9.750;2022-09-17T07:46:03;100234.94;;;12.79;100.00
30636;BME280;17400;52.392;9.750;2022-09-17T07:48:31;100236.22;;;12.77;100.00
30636;BME280;17400;52.392;9.750;2022-09-17T07:50:59;100234.81;;;12.93;100.00
30636;BME280;17400;52.392;9.750;2022-09-17T07:53:27;100241.69;;;12.95;100.00
30636;BME280;17400;52.392;9.750;2022-09-17T07:55:57;100232.19;;;13.05;100.00
30636;BME280;17400;52.392;9.750;2022-09-17T07:58:28;100237.53;;;13.11;100.00
30636;BME280;17400;52.392;9.750;2022-09-17T08:01:00;100235.56;;;13.19;100.00
30636;BME280;17400;52.392;9.750;2022-09-17T08:03:29;100246.59;;;13.24;100.00
30636;BME280;17400;52.392;9.750;2022-09-17T08:06:01;100233.47;;;13.21;100.00
30636;BME280;17400;52.392;9.750;2022-09-17T08:08:32;100244.84;;;13.29;100.00
30636;BME280;17400;52.392;9.750;2022-09-17T08:11:04;100243.72;;;13.19;100.00
30636;BME280;17400;52.392;9.750;2022-09-17T08:13:32;100246.66;;;13.17;100.00
30636;BME280;17400;52.392;9.750;2022-09-17T08:16:00;100232.47;;;13.15;100.00
30636;BME280;17400;52.392;9.750;2022-09-17T08:18:29;100237.00;;;13.21;100.00
30636;BME280;17400;52.392;9.750;2022-09-17T08:20:57;100234.22;;;13.28;100.00
30636;BME280;17400;52.392;9.750;2022-09-17T08:23:25;100233.31;;;13.53;100.00
30636;BME280;17400;52.392;9.750;2022-09-17T08:25:53;100227.72;;;13.66;100.00
30636;BME280;17400;52.392;9.750;2022-09-17T08:28:25;100230.13;;;13.56;100.00
30636;BME280;17400;52.392;9.750;2022-09-17T08:30:53;100228.03;;;13.58;100.00
30636;BME280;17400;52.392;9.750;2022-09-17T08:33:21;100222.84;;;13.56;100.00
30636;BME280;17400;52.392;9.750;2022-09-17T08:35:50;100225.13;;;13.71;100.00
30636;BME280;17400;52.392;9.750;2022-09-17T08:38:19;100210.72;;;13.71;100.00
30636;BME280;17400;52.392;9.750;2022-09-17T08:40:55;100218.09;;;13.82;100.00
30636;BME280;17400;52.392;9.750;2022-09-17T08:43:29;100209.09;;;13.81;98.02
30636;BME280;17400;52.392;9.750;2022-09-17T08:45:58;100201.53;;;13.83;99.37
30636;BME280;17400;52.392;9.750;2022-09-17T08:48:33;100210.66;;;13.89;100.00
30636;BME280;17400;52.392;9.750;2022-09-17T08:51:12;100214.34;;;13.95;100.00
30636;BME280;17400;52.392;9.750;2022-09-17T08:53:52;100213.16;;;13.91;98.29
30636;BME280;17400;52.392;9.750;2022-09-17T08:56:25;100220.56;;;13.83;98.64
30636;BME280;17400;52.392;9.750;2022-09-17T08:59:10;100209.44;;;13.73;97.55
30636;BME280;17400;52.392;9.750;2022-09-17T09:01:52;100216.28;;;13.76;96.21
30636;BME280;17400;52.392;9.750;2022-09-17T09:04:55;100212.16;;;13.73;98.38
30636;BME280;17400;52.392;9.750;2022-09-17T09:07:26;100210.63;;;13.77;99.15
30636;BME280;17400;52.392;9.750;2022-09-17T09:10:05;100213.97;;;13.91;97.32
30636;BME280;17400;52.392;9.750;2022-09-17T09:12:38;100211.13;;;13.86;94.92
30636;BME280;17400;52.392;9.750;2022-09-17T09:15:26;100214.09;;;13.96;92.46
30636;BME280;17400;52.392;9.750;2022-09-17T09:18:02;100217.00;;;14.13;93.35
30636;BME280;17400;52.392;9.750;2022-09-17T09:20:39;100222.72;;;14.24;92.44
30636;BME280;17400;52.392;9.750;2022-09-17T09:23:16;100211.09;;;14.28;91.78
30636;BME280;17400;52.392;9.750;2022-09-17T09:25:52;100208.00;;;14.01;91.59
30636;BME280;17400;52.392;9.750;2022-09-17T09:28:32;100202.28;;;13.91;93.63
30636;BME280;17400;52.392;9.750;2022-09-17T09:31:14;100204.22;;;14.14;90.70
30636;BME280;17400;52.392;9.750;2022-09-17T09:33:44;100205.41;;;14.30;90.21
30636;BME280;17400;52.392;9.750;2022-09-17T09:36:15;100205.66;;;14.28;89.46
30636;BME280;17400;52.392;9.750;2022-09-17T09:38:52;100194.66;;;14.35;87.58
30636;BME280;17400;52.392;9.750;2022-09-17T09:41:26;100197.41;;;14.47;87.83
30636;BME280;17400;52.392;9.750;2022-09-17T09:44:00;100190.28;;;14.58;87.10
30636;BME280;17400;52.392;9.750;2022-09-17T09:46:54;100199.69;;;14.62;84.58
30636;BME280;17400;52.392;9.750;2022-09-17T09:49:35;100199.72;;;14.74;84.01
30636;BME280;17400;52.392;9.750;2022-09-17T09:52:16;100180.59;;;14.86;83.43
30636;BME280;17400;52.392;9.750;2022-09-17T09:55:04;100186.91;;;14.74;81.99
30636;BME280;17400;52.392;9.750;2022-09-17T09:57:42;100204.31;;;14.73;83.12
30636;BME280;17400;52.392;9.750;2022-09-17T10:00:34;100198.63;;;14.87;82.90
30636;BME280;17400;52.392;9.750;2022-09-17T10:03:15;100189.25;;;14.71;80.12
30636;BME280;17400;52.392;9.750;2022-09-17T10:05:52;100205.25;;;14.67;79.26
30636;BME280;17400;52.392;9.750;2022-09-17T10:08:21;100195.03;;;14.62;78.31
30636;BME280;17400;52.392;9.750;2022-09-17T10:10:54;100190.00;;;14.66;74.46
30636;BME280;17400;52.392;9.750;2022-09-17T10:13:23;100195.56;;;14.71;74.84
30636;BME280;17400;52.392;9.750;2022-09-17T10:15:51;100192.59;;;14.85;72.93
30636;BME280;17400;52.392;9.750;2022-09-17T10:18:22;100187.97;;;14.85;73.48
30636;BME280;17400;52.392;9.750;2022-09-17T10:20:55;100178.97;;;14.85;72.07
30636;BME280;17400;52.392;9.750;2022-09-17T10:23:26;100179.91;;;14.78;71.97
30636;BME280;17400;52.392;9.750;2022-09-17T10:25:55;100193.16;;;14.87;70.75
30636;BME280;17400;52.392;9.750;2022-09-17T10:28:42;100180.00;;;14.95;70.03
30636;BME280;17400;52.392;9.750;2022-09-17T10:31:12;100175.88;;;14.93;67.81
30636;BME280;17400;52.392;9.750;2022-09-17T10:33:52;100182.72;;;15.07;69.66
30636;BME280;17400;52.392;9.750;2022-09-17T10:36:36;100184.38;;;15.08;66.76
30636;BME280;17400;52.392;9.750;2022-09-17T10:39:25;100176.88;;;15.15;66.02
30636;BME280;17400;52.392;9.750;2022-09-17T10:41:56;100176.31;;;15.13;62.76
30636;BME280;17400;52.392;9.750;2022-09-17T10:44:26;100196.19;;;15.26;64.24
30636;BME280;17400;52.392;9.750;2022-09-17T10:47:01;100175.78;;;15.28;62.38
30636;BME280;17400;52.392;9.750;2022-09-17T10:49:40;100185.31;;;15.14;60.71
30636;BME280;17400;52.392;9.750;2022-09-17T10:52:18;100185.06;;;15.15;60.16
30636;BME280;17400;52.392;9.750;2022-09-17T10:55:06;100181.78;;;15.13;58.95
30636;BME280;17400;52.392;9.750;2022-09-17T10:57:48;100189.56;;;15.22;60.36
30636;BME280;17400;52.392;9.750;2022-09-17T11:00:20;100185.50;;;15.36;59.84
30636;BME280;17400;52.392;9.750;2022-09-17T11:06:14;100178.72;;;15.39;60.60
30636;BME280;17400;52.392;9.750;2022-09-17T11:08:54;100171.16;;;15.29;62.23
30636;BME280;17400;52.392;9.750;2022-09-17T11:11:33;100161.97;;;15.06;62.23
30636;BME280;17400;52.392;9.750;2022-09-17T11:14:17;100161.28;;;14.99;62.85
30636;BME280;17400;52.392;9.750;2022-09-17T11:16:53;100166.13;;;15.09;60.25
30636;BME280;17400;52.392;9.750;2022-09-17T11:19:36;100175.34;;;15.08;59.07
30636;BME280;17400;52.392;9.750;2022-09-17T11:22:18;100173.22;;;15.22;60.06
30636;BME280;17400;52.392;9.750;2022-09-17T11:24:56;100159.69;;;15.27;59.54
30636;BME280;17400;52.392;9.750;2022-09-17T11:27:39;100179.22;;;15.24;60.91
30636;BME280;17400;52.392;9.750;2022-09-17T11:30:14;100178.94;;;15.08;61.95
30636;BME280;17400;52.392;9.750;2022-09-17T11:33:01;100178.59;;;14.93;62.39
30636;BME280;17400;52.392;9.750;2022-09-17T11:35:36;100182.75;;;14.95;64.03
30636;BME280;17400;52.392;9.750;2022-09-17T11:38:11;100187.72;;;14.87;63.46
30636;BME280;17400;52.392;9.750;2022-09-17T11:40:45;100191.28;;;14.87;64.16
30636;BME280;17400;52.392;9.750;2022-09-17T11:43:20;100188.69;;;14.92;63.43
30636;BME280;17400;52.392;9.750;2022-09-17T11:45:57;100187.25;;;14.90;62.54
30636;BME280;17400;52.392;9.750;2022-09-17T11:48:30;100172.41;;;14.97;63.48
30636;BME280;17400;52.392;9.750;2022-09-17T11:51:06;100172.53;;;14.91;63.71
30636;BME280;17400;52.392;9.750;2022-09-17T11:53:43;100161.03;;;15.01;65.65
30636;BME280;17400;52.392;9.750;2022-09-17T11:56:18;100169.09;;;15.07;65.61
30636;BME280;17400;52.392;9.750;2022-09-17T11:58:51;100182.13;;;15.05;67.25
30636;BME280;17400;52.392;9.750;2022-09-17T12:01:27;100183.41;;;15.14;67.53
30636;BME280;17400;52.392;9.750;2022-09-17T12:03:59;100182.72;;;15.07;66.68
30636;BME280;17400;52.392;9.750;2022-09-17T12:06:36;100180.69;;;15.14;66.41
30636;BME280;17400;52.392;9.750;2022-09-17T12:09:12;100191.34;;;15.16;66.49
30636;BME280;17400;52.392;9.750;2022-09-17T12:11:48;100194.31;;;15.03;73.18
30636;BME280;17400;52.392;9.750;2022-09-17T12:14:21;100196.88;;;14.80;81.02
30636;BME280;17400;52.392;9.750;2022-09-17T12:16:56;100200.84;;;14.42;86.05
30636;BME280;17400;52.392;9.750;2022-09-17T12:19:27;100191.13;;;14.35;89.45
30636;BME280;17400;52.392;9.750;2022-09-17T12:22:00;100203.75;;;14.17;94.30
30636;BME280;17400;52.392;9.750;2022-09-17T12:24:32;100216.69;;;13.91;99.36
30636;BME280;17400;52.392;9.750;2022-09-17T12:27:16;100221.94;;;13.74;100.00
30636;BME280;17400;52.392;9.750;2022-09-17T12:30:09;100197.59;;;13.79;100.00
30636;BME280;17400;52.392;9.750;2022-09-17T12:32:55;100185.28;;;13.77;100.00
30636;BME280;17400;52.392;9.750;2022-09-17T12:35:35;100192.03;;;13.74;100.00
30636;BME280;17400;52.392;9.750;2022-09-17T12:38:46;100180.81;;;13.71;100.00
30636;BME280;17400;52.392;9.750;2022-09-17T12:41:23;100185.88;;;13.67;100.00
30636;BME280;17400;52.392;9.750;2022-09-17T12:44:01;100183.38;;;13.65;100.00
30636;BME280;17400;52.392;9.750;2022-09-17T12:46:48;100217.47;;;13.49;100.00
30636;BME280;17400;52.392;9.750;2022-09-17T12:49:31;100234.38;;;13.52;100.00
30636;BME280;17400;52.392;9.750;2022-09-17T12:52:04;100221.41;;;13.54;100.00
30636;BME280;17400;52.392;9.750;2022-09-17T12:54:45;100211.66;;;13.46;100.00
30636;BME280;17400;52.392;9.750;2022-09-17T12:57:27;100218.75;;;13.47;100.00
30636;BME280;17400;52.392;9.750;2022-09-17T13:00:04;100229.34;;;13.37;100.00
30636;BME280;17400;52.392;9.750;2022-09-17T13:02:38;100224.47;;;13.20;100.00
30636;BME280;17400;52.392;9.750;2022-09-17T13:05:25;100223.97;;;13.11;100.00
30636;BME280;17400;52.392;9.750;2022-09-17T13:08:19;100203.66;;;13.14;100.00
30636;BME280;17400;52.392;9.750;2022-09-17T13:11:14;100199.94;;;13.08;100.00
30636;BME280;17400;52.392;9.750;2022-09-17T13:13:50;100196.25;;;13.21;100.00
30636;BME280;17400;52.392;9.750;2022-09-17T13:16:22;100191.19;;;13.25;100.00
30636;BME280;17400;52.392;9.750;2022-09-17T13:18:57;100191.28;;;13.37;100.00